sensor_id;sensor_type;location;lat;lon;timestamp;P1;durP1;ratioP1;P2;durP2;ratioP2
69847;SDS011;57143;55.940;37.496;2023-06-26T00:00:57;15.13;;;7.57;;
69847;SDS011;57143;55.940;37.496;2023-06-26T00:03:24;14.95;;;6.93;;
69847;SDS011;57143;55.940;37.496;2023-06-26T00:05:51;14.18;;;7.50;;
69847;SDS011;57143;55.940;37.496;2023-06-26T00:08:19;14.43;;;7.50;;
69847;SDS011;57143;55.940;37.496;2023-06-26T00:10:46;13.05;;;7.00;;
69847;SDS011;57143;55.940;37.496;2023-06-26T00:13:15;17.07;;;7.30;;
69847;SDS011;57143;55.940;37.496;2023-06-26T00:15:44;15.10;;;7.38;;
69847;SDS011;57143;55.940;37.496;2023-06-26T00:18:11;14.02;;;7.10;;
69847;SDS011;57143;55.940;37.496;2023-06-26T00:20:38;13.77;;;7.10;;
69847;SDS011;57143;55.940;37.496;2023-06-26T00:23:05;15.25;;;7.43;;
69847;SDS011;57143;55.940;37.496;2023-06-26T00:25:33;18.20;;;8.17;;
69847;SDS011;57143;55.940;37.496;2023-06-26T00:28:00;13.10;;;7.13;;
69847;SDS011;57143;55.940;37.496;2023-06-26T00:30:27;12.52;;;7.03;;
69847;SDS011;57143;55.940;37.496;2023-06-26T00:32:56;15.02;;;7.47;;
69847;SDS011;57143;55.940;37.496;2023-06-26T00:35:23;13.52;;;7.30;;
69847;SDS011;57143;55.940;37.496;2023-06-26T00:37:50;15.37;;;7.47;;
69847;SDS011;57143;55.940;37.496;2023-06-26T00:40:17;13.52;;;7.30;;
69847;SDS011;57143;55.940;37.496;2023-06-26T00:42:45;13.68;;;7.22;;
69847;SDS011;57143;55.940;37.496;2023-06-26T00:45:12;14.25;;;7.00;;
69847;SDS011;57143;55.940;37.496;2023-06-26T00:47:39;13.60;;;7.47;;
69847;SDS011;57143;55.940;37.496;2023-06-26T00:50:08;15.93;;;7.40;;
69847;SDS011;57143;55.940;37.496;2023-06-26T00:52:35;13.88;;;7.00;;
69847;SDS011;57143;55.940;37.496;2023-06-26T00:55:03;11.40;;;6.75;;
69847;SDS011;57143;55.940;37.496;2023-06-26T00:57:31;16.27;;;7.45;;
69847;SDS011;57143;55.940;37.496;2023-06-26T00:59:58;14.13;;;7.28;;
69847;SDS011;57143;55.940;37.496;2023-06-26T01:02:29;14.30;;;7.40;;
69847;SDS011;57143;55.940;37.496;2023-06-26T01:04:59;16.58;;;7.55;;
69847;SDS011;57143;55.940;37.496;2023-06-26T01:07:31;15.18;;;7.43;;
69847;SDS011;57143;55.940;37.496;2023-06-26T01:10:01;13.88;;;7.53;;
69847;SDS011;57143;55.940;37.496;2023-06-26T01:12:30;15.18;;;7.45;;
69847;SDS011;57143;55.940;37.496;2023-06-26T01:14:58;14.53;;;7.50;;
69847;SDS011;57143;55.940;37.496;2023-06-26T01:17:26;14.85;;;7.68;;
69847;SDS011;57143;55.940;37.496;2023-06-26T01:19:57;16.27;;;7.97;;
69847;SDS011;57143;55.940;37.496;2023-06-26T01:22:27;17.70;;;7.55;;
69847;SDS011;57143;55.940;37.496;2023-06-26T01:25:03;15.35;;;7.43;;
69847;SDS011;57143;55.940;37.496;2023-06-26T01:27:45;15.37;;;8.30;;
69847;SDS011;57143;55.940;37.496;2023-06-26T01:30:13;13.77;;;7.88;;
69847;SDS011;57143;55.940;37.496;2023-06-26T01:32:43;16.05;;;8.55;;
69847;SDS011;57143;55.940;37.496;2023-06-26T01:35:11;15.68;;;8.02;;
69847;SDS011;57143;55.940;37.496;2023-06-26T01:37:38;15.57;;;8.23;;
69847;SDS011;57143;55.940;37.496;2023-06-26T01:40:06;16.73;;;8.73;;
69847;SDS011;57143;55.940;37.496;2023-06-26T01:42:35;15.77;;;7.72;;
69847;SDS011;57143;55.940;37.496;2023-06-26T01:45:05;17.50;;;8.18;;
69847;SDS011;57143;55.940;37.496;2023-06-26T01:47:37;16.27;;;8.90;;
69847;SDS011;57143;55.940;37.496;2023-06-26T01:50:09;15.05;;;8.43;;
69847;SDS011;57143;55.940;37.496;2023-06-26T01:52:41;17.37;;;8.83;;
69847;SDS011;57143;55.940;37.496;2023-06-26T01:55:15;16.05;;;9.13;;
69847;SDS011;57143;55.940;37.496;2023-06-26T01:57:46;19.08;;;9.60;;
69847;SDS011;57143;55.940;37.496;2023-06-26T02:00:16;18.33;;;8.57;;
69847;SDS011;57143;55.940;37.496;2023-06-26T02:02:44;21.48;;;10.30;;
69847;SDS011;57143;55.940;37.496;2023-06-26T02:05:12;17.73;;;9.00;;
69847;SDS011;57143;55.940;37.496;2023-06-26T02:07:39;18.05;;;8.75;;
69847;SDS011;57143;55.940;37.496;2023-06-26T02:10:07;19.83;;;10.55;;
69847;SDS011;57143;55.940;37.496;2023-06-26T02:12:35;22.40;;;9.85;;
69847;SDS011;57143;55.940;37.496;2023-06-26T02:15:04;19.95;;;10.27;;
69847;SDS011;57143;55.940;37.496;2023-06-26T02:17:34;15.47;;;9.03;;
69847;SDS011;57143;55.940;37.496;2023-06-26T02:20:02;16.52;;;8.40;;
69847;SDS011;57143;55.940;37.496;2023-06-26T02:22:32;19.73;;;10.23;;
69847;SDS011;57143;55.940;37.496;2023-06-26T02:24:59;18.40;;;9.10;;
69847;SDS011;57143;55.940;37.496;2023-06-26T02:27:29;16.08;;;9.40;;
69847;SDS011;57143;55.940;37.496;2023-06-26T02:29:56;16.50;;;8.20;;
69847;SDS011;57143;55.940;37.496;2023-06-26T02:32:24;18.60;;;8.88;;
69847;SDS011;57143;55.940;37.496;2023-06-26T02:34:52;17.45;;;9.00;;
69847;SDS011;57143;55.940;37.496;2023-06-26T02:37:20;17.52;;;8.00;;
69847;SDS011;57143;55.940;37.496;2023-06-26T02:39:47;19.17;;;10.27;;
69847;SDS011;57143;55.940;37.496;2023-06-26T02:42:14;19.87;;;10.63;;
69847;SDS011;57143;55.940;37.496;2023-06-26T02:44:41;18.20;;;8.45;;
69847;SDS011;57143;55.940;37.496;2023-06-26T02:47:08;24.42;;;13.20;;
69847;SDS011;57143;55.940;37.496;2023-06-26T02:49:35;26.85;;;12.75;;
69847;SDS011;57143;55.940;37.496;2023-06-26T02:52:04;19.77;;;9.38;;
69847;SDS011;57143;55.940;37.496;2023-06-26T02:54:32;19.50;;;9.67;;
69847;SDS011;57143;55.940;37.496;2023-06-26T02:56:59;15.13;;;8.82;;
69847;SDS011;57143;55.940;37.496;2023-06-26T02:59:26;19.33;;;9.10;;
69847;SDS011;57143;55.940;37.496;2023-06-26T03:01:53;16.80;;;8.95;;
69847;SDS011;57143;55.940;37.496;2023-06-26T03:04:20;20.35;;;8.60;;
69847;SDS011;57143;55.940;37.496;2023-06-26T03:06:47;17.17;;;8.97;;
69847;SDS011;57143;55.940;37.496;2023-06-26T03:09:16;19.58;;;9.80;;
69847;SDS011;57143;55.940;37.496;2023-06-26T03:11:43;19.92;;;10.57;;
69847;SDS011;57143;55.940;37.496;2023-06-26T03:14:10;20.52;;;9.80;;
69847;SDS011;57143;55.940;37.496;2023-06-26T03:16:38;19.23;;;10.50;;
69847;SDS011;57143;55.940;37.496;2023-06-26T03:19:06;16.77;;;10.10;;
69847;SDS011;57143;55.940;37.496;2023-06-26T03:21:33;20.00;;;10.43;;
69847;SDS011;57143;55.940;37.496;2023-06-26T03:24:00;21.85;;;12.00;;
69847;SDS011;57143;55.940;37.496;2023-06-26T03:26:28;21.80;;;11.30;;
69847;SDS011;57143;55.940;37.496;2023-06-26T03:28:56;19.60;;;11.15;;
69847;SDS011;57143;55.940;37.496;2023-06-26T03:31:23;18.63;;;10.97;;
69847;SDS011;57143;55.940;37.496;2023-06-26T03:33:50;21.05;;;10.95;;
69847;SDS011;57143;55.940;37.496;2023-06-26T03:36:17;19.85;;;10.60;;
69847;SDS011;57143;55.940;37.496;2023-06-26T03:38:44;20.67;;;11.25;;
69847;SDS011;57143;55.940;37.496;2023-06-26T03:41:11;23.25;;;11.88;;
69847;SDS011;57143;55.940;37.496;2023-06-26T03:43:40;20.67;;;10.87;;
69847;SDS011;57143;55.940;37.496;2023-06-26T03:46:07;19.95;;;11.18;;
69847;SDS011;57143;55.940;37.496;2023-06-26T03:48:34;20.50;;;11.13;;
69847;SDS011;57143;55.940;37.496;2023-06-26T03:51:03;19.42;;;10.77;;
69847;SDS011;57143;55.940;37.496;2023-06-26T03:53:32;22.85;;;10.68;;
69847;SDS011;57143;55.940;37.496;2023-06-26T03:55:59;19.30;;;10.47;;
69847;SDS011;57143;55.940;37.496;2023-06-26T03:58:26;21.85;;;10.90;;
69847;SDS011;57143;55.940;37.496;2023-06-26T04:00:54;20.02;;;10.75;;
69847;SDS011;57143;55.940;37.496;2023-06-26T04:03:22;20.05;;;11.23;;
69847;SDS011;57143;55.940;37.496;2023-06-26T04:05:50;18.90;;;10.60;;
69847;SDS011;57143;55.940;37.496;2023-06-26T04:08:17;18.13;;;10.50;;
69847;SDS011;57143;55.940;37.496;2023-06-26T04:10:45;19.15;;;10.68;;
69847;SDS011;57143;55.940;37.496;2023-06-26T04:13:13;19.10;;;10.38;;
69847;SDS011;57143;55.940;37.496;2023-06-26T04:15:41;18.67;;;10.55;;
69847;SDS011;57143;55.940;37.496;2023-06-26T04:18:09;17.98;;;10.65;;
69847;SDS011;57143;55.940;37.496;2023-06-26T04:20:38;20.17;;;10.57;;
69847;SDS011;57143;55.940;37.496;2023-06-26T04:23:06;18.77;;;10.52;;
69847;SDS011;57143;55.940;37.496;2023-06-26T04:25:33;17.40;;;10.52;;
69847;SDS011;57143;55.940;37.496;2023-06-26T04:28:03;16.10;;;9.85;;
69847;SDS011;57143;55.940;37.496;2023-06-26T04:30:30;17.85;;;10.30;;
69847;SDS011;57143;55.940;37.496;2023-06-26T04:32:57;20.07;;;9.77;;
69847;SDS011;57143;55.940;37.496;2023-06-26T04:35:28;16.35;;;9.55;;
69847;SDS011;57143;55.940;37.496;2023-06-26T04:37:55;18.83;;;9.75;;
69847;SDS011;57143;55.940;37.496;2023-06-26T04:40:22;17.05;;;10.10;;
69847;SDS011;57143;55.940;37.496;2023-06-26T04:42:49;17.52;;;9.98;;
69847;SDS011;57143;55.940;37.496;2023-06-26T04:45:16;18.33;;;10.50;;
69847;SDS011;57143;55.940;37.496;2023-06-26T04:47:44;14.57;;;9.40;;
69847;SDS011;57143;55.940;37.496;2023-06-26T04:50:11;15.57;;;10.10;;
69847;SDS011;57143;55.940;37.496;2023-06-26T04:52:39;14.48;;;8.88;;
69847;SDS011;57143;55.940;37.496;2023-06-26T04:55:07;13.98;;;8.45;;
69847;SDS011;57143;55.940;37.496;2023-06-26T04:57:34;14.33;;;8.57;;
69847;SDS011;57143;55.940;37.496;2023-06-26T05:00:01;12.32;;;7.82;;
69847;SDS011;57143;55.940;37.496;2023-06-26T05:02:33;14.88;;;7.88;;
69847;SDS011;57143;55.940;37.496;2023-06-26T05:05:00;13.15;;;7.53;;
69847;SDS011;57143;55.940;37.496;2023-06-26T05:07:30;12.07;;;7.57;;
69847;SDS011;57143;55.940;37.496;2023-06-26T05:09:58;10.37;;;6.57;;
69847;SDS011;57143;55.940;37.496;2023-06-26T05:12:26;11.63;;;7.22;;
69847;SDS011;57143;55.940;37.496;2023-06-26T05:14:53;13.52;;;7.45;;
69847;SDS011;57143;55.940;37.496;2023-06-26T05:17:20;11.15;;;6.32;;
69847;SDS011;57143;55.940;37.496;2023-06-26T05:19:47;10.48;;;6.28;;
69847;SDS011;57143;55.940;37.496;2023-06-26T05:22:14;10.87;;;6.07;;
69847;SDS011;57143;55.940;37.496;2023-06-26T05:24:44;9.50;;;6.32;;
69847;SDS011;57143;55.940;37.496;2023-06-26T05:27:15;11.55;;;6.75;;
69847;SDS011;57143;55.940;37.496;2023-06-26T05:29:47;10.43;;;6.28;;
69847;SDS011;57143;55.940;37.496;2023-06-26T05:32:15;11.85;;;6.35;;
69847;SDS011;57143;55.940;37.496;2023-06-26T05:34:44;9.73;;;6.80;;
69847;SDS011;57143;55.940;37.496;2023-06-26T05:37:14;12.20;;;6.55;;
69847;SDS011;57143;55.940;37.496;2023-06-26T05:39:47;10.27;;;6.13;;
69847;SDS011;57143;55.940;37.496;2023-06-26T05:42:17;9.95;;;6.28;;
69847;SDS011;57143;55.940;37.496;2023-06-26T05:44:44;10.25;;;6.40;;
69847;SDS011;57143;55.940;37.496;2023-06-26T05:47:11;9.67;;;6.20;;
69847;SDS011;57143;55.940;37.496;2023-06-26T05:49:39;10.05;;;6.32;;
69847;SDS011;57143;55.940;37.496;2023-06-26T05:52:06;10.35;;;6.72;;
69847;SDS011;57143;55.940;37.496;2023-06-26T05:54:35;9.90;;;5.80;;
69847;SDS011;57143;55.940;37.496;2023-06-26T05:57:02;10.73;;;6.45;;
69847;SDS011;57143;55.940;37.496;2023-06-26T05:59:32;9.13;;;5.80;;
69847;SDS011;57143;55.940;37.496;2023-06-26T06:02:02;9.50;;;5.93;;
69847;SDS011;57143;55.940;37.496;2023-06-26T06:04:30;10.80;;;5.68;;
69847;SDS011;57143;55.940;37.496;2023-06-26T06:06:57;11.35;;;6.07;;
69847;SDS011;57143;55.940;37.496;2023-06-26T06:09:24;9.82;;;5.25;;
69847;SDS011;57143;55.940;37.496;2023-06-26T06:11:51;10.20;;;6.17;;
69847;SDS011;57143;55.940;37.496;2023-06-26T06:14:19;11.57;;;5.93;;
69847;SDS011;57143;55.940;37.496;2023-06-26T06:16:47;9.57;;;5.78;;
69847;SDS011;57143;55.940;37.496;2023-06-26T06:19:14;9.02;;;5.80;;
69847;SDS011;57143;55.940;37.496;2023-06-26T06:21:41;12.48;;;5.65;;
69847;SDS011;57143;55.940;37.496;2023-06-26T06:24:09;9.23;;;5.83;;
69847;SDS011;57143;55.940;37.496;2023-06-26T06:26:36;10.52;;;6.57;;
69847;SDS011;57143;55.940;37.496;2023-06-26T06:29:03;10.23;;;6.22;;
69847;SDS011;57143;55.940;37.496;2023-06-26T06:31:31;12.95;;;6.10;;
69847;SDS011;57143;55.940;37.496;2023-06-26T06:33:59;13.90;;;6.43;;
69847;SDS011;57143;55.940;37.496;2023-06-26T06:36:27;9.70;;;5.80;;
69847;SDS011;57143;55.940;37.496;2023-06-26T06:38:54;10.52;;;5.50;;
69847;SDS011;57143;55.940;37.496;2023-06-26T06:41:21;9.20;;;5.80;;
69847;SDS011;57143;55.940;37.496;2023-06-26T06:43:48;8.10;;;5.20;;
69847;SDS011;57143;55.940;37.496;2023-06-26T06:46:15;9.90;;;5.05;;
69847;SDS011;57143;55.940;37.496;2023-06-26T06:48:42;9.17;;;5.63;;
69847;SDS011;57143;55.940;37.496;2023-06-26T06:51:13;8.30;;;4.88;;
69847;SDS011;57143;55.940;37.496;2023-06-26T06:53:40;8.20;;;5.05;;
69847;SDS011;57143;55.940;37.496;2023-06-26T06:56:07;8.02;;;4.60;;
69847;SDS011;57143;55.940;37.496;2023-06-26T06:58:34;7.65;;;5.07;;
69847;SDS011;57143;55.940;37.496;2023-06-26T07:01:01;8.23;;;5.17;;
69847;SDS011;57143;55.940;37.496;2023-06-26T07:03:29;7.65;;;4.57;;
69847;SDS011;57143;55.940;37.496;2023-06-26T07:05:56;9.30;;;5.25;;
69847;SDS011;57143;55.940;37.496;2023-06-26T07:08:25;7.97;;;5.10;;
69847;SDS011;57143;55.940;37.496;2023-06-26T07:10:52;8.38;;;4.70;;
69847;SDS011;57143;55.940;37.496;2023-06-26T07:13:19;8.50;;;4.70;;
69847;SDS011;57143;55.940;37.496;2023-06-26T07:15:46;7.78;;;4.93;;
69847;SDS011;57143;55.940;37.496;2023-06-26T07:18:14;9.70;;;5.30;;
69847;SDS011;57143;55.940;37.496;2023-06-26T07:20:41;8.48;;;4.47;;
69847;SDS011;57143;55.940;37.496;2023-06-26T07:23:08;7.40;;;4.75;;
69847;SDS011;57143;55.940;37.496;2023-06-26T07:25:37;7.80;;;4.57;;
69847;SDS011;57143;55.940;37.496;2023-06-26T07:28:09;9.30;;;5.15;;
69847;SDS011;57143;55.940;37.496;2023-06-26T07:30:37;7.18;;;4.40;;
69847;SDS011;57143;55.940;37.496;2023-06-26T07:33:05;8.88;;;4.80;;
69847;SDS011;57143;55.940;37.496;2023-06-26T07:35:32;9.27;;;5.20;;
69847;SDS011;57143;55.940;37.496;2023-06-26T07:38:00;7.83;;;4.33;;
69847;SDS011;57143;55.940;37.496;2023-06-26T07:40:27;12.52;;;5.47;;
69847;SDS011;57143;55.940;37.496;2023-06-26T07:42:55;8.10;;;4.50;;
69847;SDS011;57143;55.940;37.496;2023-06-26T07:45:23;8.88;;;5.28;;
69847;SDS011;57143;55.940;37.496;2023-06-26T07:47:50;8.18;;;4.95;;
69847;SDS011;57143;55.940;37.496;2023-06-26T07:50:18;8.30;;;5.10;;
69847;SDS011;57143;55.940;37.496;2023-06-26T07:52:48;7.40;;;4.53;;
69847;SDS011;57143;55.940;37.496;2023-06-26T07:55:15;8.80;;;4.90;;
69847;SDS011;57143;55.940;37.496;2023-06-26T07:57:42;7.78;;;4.50;;
69847;SDS011;57143;55.940;37.496;2023-06-26T08:00:12;9.40;;;4.82;;
69847;SDS011;57143;55.940;37.496;2023-06-26T08:02:40;8.67;;;4.93;;
69847;SDS011;57143;55.940;37.496;2023-06-26T08:05:08;8.50;;;5.20;;
69847;SDS011;57143;55.940;37.496;2023-06-26T08:07:35;8.80;;;5.40;;
69847;SDS011;57143;55.940;37.496;2023-06-26T08:10:02;8.45;;;5.22;;
69847;SDS011;57143;55.940;37.496;2023-06-26T08:12:30;8.48;;;5.00;;
69847;SDS011;57143;55.940;37.496;2023-06-26T08:14:57;8.67;;;5.23;;
69847;SDS011;57143;55.940;37.496;2023-06-26T08:17:26;8.45;;;4.93;;
69847;SDS011;57143;55.940;37.496;2023-06-26T08:19:53;9.43;;;5.60;;
69847;SDS011;57143;55.940;37.496;2023-06-26T08:22:20;10.00;;;5.30;;
69847;SDS011;57143;55.940;37.496;2023-06-26T08:24:47;8.73;;;5.03;;
69847;SDS011;57143;55.940;37.496;2023-06-26T08:27:14;9.20;;;5.43;;
69847;SDS011;57143;55.940;37.496;2023-06-26T08:29:41;8.98;;;5.10;;
69847;SDS011;57143;55.940;37.496;2023-06-26T08:32:09;11.27;;;5.18;;
69847;SDS011;57143;55.940;37.496;2023-06-26T08:34:37;9.68;;;5.50;;
69847;SDS011;57143;55.940;37.496;2023-06-26T08:37:05;9.35;;;5.88;;
69847;SDS011;57143;55.940;37.496;2023-06-26T08:39:34;10.87;;;5.37;;
69847;SDS011;57143;55.940;37.496;2023-06-26T08:42:02;12.15;;;5.00;;
69847;SDS011;57143;55.940;37.496;2023-06-26T08:44:29;9.80;;;5.53;;
69847;SDS011;57143;55.940;37.496;2023-06-26T08:46:58;8.20;;;4.88;;
69847;SDS011;57143;55.940;37.496;2023-06-26T08:49:28;9.95;;;5.30;;
69847;SDS011;57143;55.940;37.496;2023-06-26T08:52:05;10.87;;;5.00;;
69847;SDS011;57143;55.940;37.496;2023-06-26T08:54:38;10.40;;;5.60;;
69847;SDS011;57143;55.940;37.496;2023-06-26T08:57:14;10.07;;;5.18;;
69847;SDS011;57143;55.940;37.496;2023-06-26T08:59:44;8.68;;;4.60;;
69847;SDS011;57143;55.940;37.496;2023-06-26T09:02:12;8.38;;;4.93;;
69847;SDS011;57143;55.940;37.496;2023-06-26T09:04:40;7.83;;;4.40;;
69847;SDS011;57143;55.940;37.496;2023-06-26T09:07:08;9.40;;;4.82;;
69847;SDS011;57143;55.940;37.496;2023-06-26T09:09:36;9.07;;;5.70;;
69847;SDS011;57143;55.940;37.496;2023-06-26T09:12:03;8.60;;;4.78;;
69847;SDS011;57143;55.940;37.496;2023-06-26T09:14:31;9.07;;;5.00;;
69847;SDS011;57143;55.940;37.496;2023-06-26T09:16:58;9.30;;;4.83;;
69847;SDS011;57143;55.940;37.496;2023-06-26T09:19:26;10.00;;;4.70;;
69847;SDS011;57143;55.940;37.496;2023-06-26T09:21:53;10.70;;;5.43;;
69847;SDS011;57143;55.940;37.496;2023-06-26T09:24:22;9.02;;;5.20;;
69847;SDS011;57143;55.940;37.496;2023-06-26T09:26:50;10.10;;;5.07;;
69847;SDS011;57143;55.940;37.496;2023-06-26T09:29:18;10.43;;;4.90;;
69847;SDS011;57143;55.940;37.496;2023-06-26T09:31:46;9.52;;;5.35;;
69847;SDS011;57143;55.940;37.496;2023-06-26T09:34:13;11.48;;;6.40;;
69847;SDS011;57143;55.940;37.496;2023-06-26T09:36:40;10.77;;;6.10;;
69847;SDS011;57143;55.940;37.496;2023-06-26T09:39:11;11.43;;;5.35;;
69847;SDS011;57143;55.940;37.496;2023-06-26T09:41:42;10.40;;;5.10;;
69847;SDS011;57143;55.940;37.496;2023-06-26T09:44:10;8.50;;;4.63;;
69847;SDS011;57143;55.940;37.496;2023-06-26T09:46:40;11.52;;;5.28;;
69847;SDS011;57143;55.940;37.496;2023-06-26T09:49:11;8.68;;;4.53;;
69847;SDS011;57143;55.940;37.496;2023-06-26T09:51:39;9.13;;;4.80;;
69847;SDS011;57143;55.940;37.496;2023-06-26T09:54:07;9.57;;;4.43;;
69847;SDS011;57143;55.940;37.496;2023-06-26T09:56:35;10.57;;;5.13;;
69847;SDS011;57143;55.940;37.496;2023-06-26T09:59:05;12.02;;;6.57;;
69847;SDS011;57143;55.940;37.496;2023-06-26T10:01:32;11.70;;;5.70;;
69847;SDS011;57143;55.940;37.496;2023-06-26T10:04:00;12.05;;;5.93;;
69847;SDS011;57143;55.940;37.496;2023-06-26T10:06:28;14.97;;;7.70;;
69847;SDS011;57143;55.940;37.496;2023-06-26T10:09:00;12.77;;;6.50;;
69847;SDS011;57143;55.940;37.496;2023-06-26T10:11:29;16.23;;;8.20;;
69847;SDS011;57143;55.940;37.496;2023-06-26T10:14:04;11.10;;;5.85;;
69847;SDS011;57143;55.940;37.496;2023-06-26T10:16:34;11.35;;;4.97;;
69847;SDS011;57143;55.940;37.496;2023-06-26T10:19:05;9.67;;;5.70;;
69847;SDS011;57143;55.940;37.496;2023-06-26T10:21:34;8.80;;;5.18;;
69847;SDS011;57143;55.940;37.496;2023-06-26T10:24:05;11.77;;;5.00;;
69847;SDS011;57143;55.940;37.496;2023-06-26T10:26:35;9.00;;;5.25;;
69847;SDS011;57143;55.940;37.496;2023-06-26T10:29:10;9.73;;;4.75;;
69847;SDS011;57143;55.940;37.496;2023-06-26T10:31:40;10.00;;;4.83;;
69847;SDS011;57143;55.940;37.496;2023-06-26T10:34:11;8.20;;;5.25;;
69847;SDS011;57143;55.940;37.496;2023-06-26T10:36:38;9.45;;;5.78;;
69847;SDS011;57143;55.940;37.496;2023-06-26T10:39:06;9.50;;;5.15;;
69847;SDS011;57143;55.940;37.496;2023-06-26T10:41:37;9.02;;;4.55;;
69847;SDS011;57143;55.940;37.496;2023-06-26T10:44:07;7.83;;;4.60;;
69847;SDS011;57143;55.940;37.496;2023-06-26T10:46:50;9.65;;;4.90;;
69847;SDS011;57143;55.940;37.496;2023-06-26T10:49:19;9.05;;;5.40;;
69847;SDS011;57143;55.940;37.496;2023-06-26T10:51:47;8.07;;;4.60;;
69847;SDS011;57143;55.940;37.496;2023-06-26T10:54:15;8.10;;;4.75;;
69847;SDS011;57143;55.940;37.496;2023-06-26T10:56:44;11.20;;;5.10;;
69847;SDS011;57143;55.940;37.496;2023-06-26T10:59:17;10.90;;;4.47;;
69847;SDS011;57143;55.940;37.496;2023-06-26T11:01:46;10.63;;;5.05;;
69847;SDS011;57143;55.940;37.496;2023-06-26T11:04:22;10.90;;;4.32;;
69847;SDS011;57143;55.940;37.496;2023-06-26T11:07:15;8.65;;;4.63;;
69847;SDS011;57143;55.940;37.496;2023-06-26T11:09:54;9.07;;;5.27;;
69847;SDS011;57143;55.940;37.496;2023-06-26T11:12:36;8.35;;;4.90;;
69847;SDS011;57143;55.940;37.496;2023-06-26T11:15:08;9.00;;;5.07;;
69847;SDS011;57143;55.940;37.496;2023-06-26T11:17:36;8.70;;;4.88;;
69847;SDS011;57143;55.940;37.496;2023-06-26T11:20:05;9.02;;;5.10;;
69847;SDS011;57143;55.940;37.496;2023-06-26T11:22:34;9.87;;;4.87;;
69847;SDS011;57143;55.940;37.496;2023-06-26T11:25:02;10.88;;;4.85;;
69847;SDS011;57143;55.940;37.496;2023-06-26T11:27:31;10.68;;;5.13;;
69847;SDS011;57143;55.940;37.496;2023-06-26T11:29:59;10.18;;;5.15;;
69847;SDS011;57143;55.940;37.496;2023-06-26T11:32:32;10.57;;;5.20;;
69847;SDS011;57143;55.940;37.496;2023-06-26T11:35:00;10.33;;;5.17;;
69847;SDS011;57143;55.940;37.496;2023-06-26T11:37:29;11.52;;;5.10;;
69847;SDS011;57143;55.940;37.496;2023-06-26T11:39:57;11.93;;;4.85;;
69847;SDS011;57143;55.940;37.496;2023-06-26T11:42:24;10.80;;;4.80;;
69847;SDS011;57143;55.940;37.496;2023-06-26T11:44:51;10.48;;;4.88;;
69847;SDS011;57143;55.940;37.496;2023-06-26T11:47:20;9.20;;;4.40;;
69847;SDS011;57143;55.940;37.496;2023-06-26T11:49:49;8.40;;;4.30;;
69847;SDS011;57143;55.940;37.496;2023-06-26T11:52:17;10.00;;;4.90;;
69847;SDS011;57143;55.940;37.496;2023-06-26T11:54:44;11.25;;;4.68;;
69847;SDS011;57143;55.940;37.496;2023-06-26T11:57:13;9.45;;;4.03;;
69847;SDS011;57143;55.940;37.496;2023-06-26T11:59:42;7.87;;;4.30;;
69847;SDS011;57143;55.940;37.496;2023-06-26T12:02:10;8.75;;;4.20;;
69847;SDS011;57143;55.940;37.496;2023-06-26T12:04:40;9.07;;;4.10;;
69847;SDS011;57143;55.940;37.496;2023-06-26T12:07:10;7.65;;;4.05;;
69847;SDS011;57143;55.940;37.496;2023-06-26T12:09:39;8.07;;;4.07;;
69847;SDS011;57143;55.940;37.496;2023-06-26T12:12:08;7.63;;;4.03;;
69847;SDS011;57143;55.940;37.496;2023-06-26T12:14:36;9.70;;;3.97;;
69847;SDS011;57143;55.940;37.496;2023-06-26T12:17:09;10.57;;;4.13;;
69847;SDS011;57143;55.940;37.496;2023-06-26T12:19:38;9.25;;;4.50;;
69847;SDS011;57143;55.940;37.496;2023-06-26T12:22:06;9.45;;;5.07;;
69847;SDS011;57143;55.940;37.496;2023-06-26T12:24:35;9.93;;;5.13;;
69847;SDS011;57143;55.940;37.496;2023-06-26T12:27:07;11.90;;;6.28;;
69847;SDS011;57143;55.940;37.496;2023-06-26T12:29:36;8.57;;;4.13;;
69847;SDS011;57143;55.940;37.496;2023-06-26T12:32:08;11.98;;;5.05;;
69847;SDS011;57143;55.940;37.496;2023-06-26T12:34:36;8.77;;;4.70;;
69847;SDS011;57143;55.940;37.496;2023-06-26T12:37:05;10.00;;;4.87;;
69847;SDS011;57143;55.940;37.496;2023-06-26T12:39:48;8.65;;;4.68;;
69847;SDS011;57143;55.940;37.496;2023-06-26T12:42:17;10.50;;;5.10;;
69847;SDS011;57143;55.940;37.496;2023-06-26T12:44:45;8.85;;;4.80;;
69847;SDS011;57143;55.940;37.496;2023-06-26T12:47:13;10.45;;;5.43;;
69847;SDS011;57143;55.940;37.496;2023-06-26T12:49:43;10.47;;;5.57;;
69847;SDS011;57143;55.940;37.496;2023-06-26T12:52:12;9.10;;;5.18;;
69847;SDS011;57143;55.940;37.496;2023-06-26T12:54:40;9.23;;;5.28;;
69847;SDS011;57143;55.940;37.496;2023-06-26T12:57:10;10.10;;;5.30;;
69847;SDS011;57143;55.940;37.496;2023-06-26T12:59:39;13.82;;;7.40;;
69847;SDS011;57143;55.940;37.496;2023-06-26T13:02:06;8.83;;;4.97;;
69847;SDS011;57143;55.940;37.496;2023-06-26T13:04:36;10.35;;;5.82;;
69847;SDS011;57143;55.940;37.496;2023-06-26T13:07:05;10.35;;;5.45;;
69847;SDS011;57143;55.940;37.496;2023-06-26T13:09:33;15.82;;;8.68;;
69847;SDS011;57143;55.940;37.496;2023-06-26T13:12:02;9.10;;;5.45;;
69847;SDS011;57143;55.940;37.496;2023-06-26T13:14:31;13.40;;;6.17;;
69847;SDS011;57143;55.940;37.496;2023-06-26T13:16:59;8.60;;;4.50;;
69847;SDS011;57143;55.940;37.496;2023-06-26T13:19:27;8.95;;;4.80;;
69847;SDS011;57143;55.940;37.496;2023-06-26T13:21:54;11.45;;;6.50;;
69847;SDS011;57143;55.940;37.496;2023-06-26T13:24:22;11.27;;;5.68;;
69847;SDS011;57143;55.940;37.496;2023-06-26T13:26:49;10.20;;;5.17;;
69847;SDS011;57143;55.940;37.496;2023-06-26T13:29:17;11.80;;;5.22;;
69847;SDS011;57143;55.940;37.496;2023-06-26T13:31:45;9.65;;;5.13;;
69847;SDS011;57143;55.940;37.496;2023-06-26T13:34:19;12.48;;;6.63;;
69847;SDS011;57143;55.940;37.496;2023-06-26T13:36:48;10.02;;;4.55;;
69847;SDS011;57143;55.940;37.496;2023-06-26T13:39:15;8.40;;;4.77;;
69847;SDS011;57143;55.940;37.496;2023-06-26T13:41:42;9.38;;;4.18;;
69847;SDS011;57143;55.940;37.496;2023-06-26T13:44:10;8.88;;;4.40;;
69847;SDS011;57143;55.940;37.496;2023-06-26T13:46:37;9.32;;;4.78;;
69847;SDS011;57143;55.940;37.496;2023-06-26T13:49:05;8.65;;;4.47;;
69847;SDS011;57143;55.940;37.496;2023-06-26T13:51:32;9.83;;;4.47;;
69847;SDS011;57143;55.940;37.496;2023-06-26T13:54:00;10.50;;;4.43;;
69847;SDS011;57143;55.940;37.496;2023-06-26T13:56:27;9.13;;;4.50;;
69847;SDS011;57143;55.940;37.496;2023-06-26T13:58:55;10.80;;;4.30;;
69847;SDS011;57143;55.940;37.496;2023-06-26T14:01:23;7.50;;;4.13;;
69847;SDS011;57143;55.940;37.496;2023-06-26T14:03:50;7.97;;;4.27;;
69847;SDS011;57143;55.940;37.496;2023-06-26T14:06:19;8.00;;;4.10;;
69847;SDS011;57143;55.940;37.496;2023-06-26T14:08:46;8.05;;;4.50;;
69847;SDS011;57143;55.940;37.496;2023-06-26T14:11:13;11.20;;;4.65;;
69847;SDS011;57143;55.940;37.496;2023-06-26T14:13:41;7.72;;;4.15;;
69847;SDS011;57143;55.940;37.496;2023-06-26T14:16:08;8.87;;;4.70;;
69847;SDS011;57143;55.940;37.496;2023-06-26T14:18:36;8.02;;;3.88;;
69847;SDS011;57143;55.940;37.496;2023-06-26T14:21:03;11.02;;;4.18;;
69847;SDS011;57143;55.940;37.496;2023-06-26T14:23:32;10.02;;;4.72;;
69847;SDS011;57143;55.940;37.496;2023-06-26T14:25:59;8.82;;;4.30;;
69847;SDS011;57143;55.940;37.496;2023-06-26T14:28:26;10.03;;;4.10;;
69847;SDS011;57143;55.940;37.496;2023-06-26T14:30:53;9.02;;;4.00;;
69847;SDS011;57143;55.940;37.496;2023-06-26T14:33:20;7.60;;;4.00;;